createdAt,value
2023-03-30T00:01:23.273Z,9.60
2023-03-30T00:03:51.392Z,9.60
2023-03-30T00:06:22.581Z,9.60
2023-03-30T00:08:53.314Z,9.50
2023-03-30T00:11:23.403Z,9.50
2023-03-30T00:13:52.091Z,9.60
2023-03-30T00:16:21.700Z,9.60
2023-03-30T00:18:51.620Z,9.60
2023-03-30T00:21:20.666Z,9.60
2023-03-30T00:23:49.114Z,9.60
2023-03-30T00:26:17.892Z,9.60
2023-03-30T00:28:46.259Z,9.60
2023-03-30T00:31:14.316Z,9.60
2023-03-30T00:33:46.936Z,9.60
2023-03-30T00:36:17.829Z,9.60
2023-03-30T00:38:48.292Z,9.60
2023-03-30T00:41:17.795Z,9.60
2023-03-30T00:43:57.140Z,9.60
2023-03-30T00:46:25.887Z,9.60
2023-03-30T00:48:57.762Z,9.60
2023-03-30T00:51:28.993Z,9.60
2023-03-30T00:54:02.351Z,9.50
2023-03-30T00:56:31.844Z,9.60
2023-03-30T00:59:01.778Z,9.60
2023-03-30T01:01:40.246Z,9.60
2023-03-30T01:04:13.420Z,9.60
2023-03-30T01:06:46.336Z,9.50
2023-03-30T01:09:15.437Z,9.50
2023-03-30T01:11:44.248Z,9.60
2023-03-30T01:14:16.206Z,9.60
2023-03-30T01:16:54.857Z,9.60
2023-03-30T01:19:48.544Z,9.60
2023-03-30T01:22:54.059Z,9.60
2023-03-30T01:25:59.458Z,9.60
2023-03-30T01:28:37.672Z,9.60
2023-03-30T01:31:27.178Z,9.60
2023-03-30T01:34:19.663Z,9.60
2023-03-30T01:37:17.556Z,9.60
2023-03-30T01:39:57.122Z,9.60
2023-03-30T01:42:35.845Z,9.60
2023-03-30T01:45:13.232Z,9.60
2023-03-30T01:47:48.833Z,9.60
2023-03-30T01:50:24.226Z,9.60
2023-03-30T01:52:58.452Z,9.60
2023-03-30T01:55:34.762Z,9.60
2023-03-30T01:58:07.892Z,9.50
2023-03-30T02:00:38.221Z,9.60
2023-03-30T02:03:10.808Z,9.60
2023-03-30T02:05:40.641Z,9.50
2023-03-30T02:08:11.451Z,9.60
2023-03-30T02:10:42.978Z,9.60
2023-03-30T02:13:12.636Z,9.60
2023-03-30T02:15:45.384Z,9.60
2023-03-30T02:18:13.914Z,9.60
2023-03-30T02:20:42.644Z,9.60
2023-03-30T02:23:11.471Z,9.60
2023-03-30T02:25:41.034Z,9.70
2023-03-30T02:28:09.616Z,9.60
2023-03-30T02:30:42.408Z,9.60
2023-03-30T02:33:21.424Z,9.60
2023-03-30T02:36:17.750Z,9.60
2023-03-30T02:39:07.629Z,9.60
2023-03-30T02:41:52.597Z,9.60
2023-03-30T02:44:30.614Z,9.70
2023-03-30T02:47:08.068Z,9.60
2023-03-30T02:49:51.951Z,9.60
2023-03-30T02:52:34.090Z,9.50
2023-03-30T02:55:11.833Z,9.50
2023-03-30T02:58:16.692Z,9.50
2023-03-30T03:01:06.049Z,9.40
2023-03-30T03:04:01.915Z,9.40
2023-03-30T03:06:35.193Z,9.40
2023-03-30T03:09:03.546Z,9.40
2023-03-30T03:11:33.938Z,9.30
2023-03-30T03:14:03.651Z,9.30
2023-03-30T03:16:34.265Z,9.30
2023-03-30T03:19:20.675Z,9.30
2023-03-30T03:21:51.703Z,9.30
2023-03-30T03:24:19.823Z,9.30
2023-03-30T03:27:06.607Z,9.30
2023-03-30T03:29:47.457Z,9.40
2023-03-30T03:32:16.199Z,9.40
2023-03-30T03:34:47.367Z,9.40
2023-03-30T03:37:15.595Z,9.40
2023-03-30T03:39:45.667Z,9.40
2023-03-30T03:42:15.699Z,9.40
2023-03-30T03:45:07.771Z,9.40
2023-03-30T03:47:37.305Z,9.50
2023-03-30T03:50:09.349Z,9.50
2023-03-30T03:52:37.932Z,9.50
2023-03-30T03:55:07.824Z,9.50
2023-03-30T03:57:37.629Z,9.50
2023-03-30T04:00:15.508Z,9.50
2023-03-30T04:02:46.269Z,9.50
2023-03-30T04:05:14.613Z,9.50
2023-03-30T04:07:46.282Z,9.50
2023-03-30T04:10:15.319Z,9.50
2023-03-30T04:13:02.219Z,9.50
2023-03-30T04:15:31.940Z,9.50
2023-03-30T04:18:11.577Z,9.50
2023-03-30T04:21:17.788Z,9.50
2023-03-30T04:24:15.388Z,9.50
2023-03-30T04:27:09.752Z,9.50
2023-03-30T04:29:46.140Z,9.50
2023-03-30T04:32:34.881Z,9.60
2023-03-30T04:35:16.786Z,9.60
2023-03-30T04:38:06.166Z,9.60
2023-03-30T04:41:02.111Z,9.60
2023-03-30T04:43:54.100Z,9.70
2023-03-30T04:46:53.942Z,9.70
2023-03-30T04:49:49.297Z,9.70
2023-03-30T04:52:43.371Z,9.70
2023-03-30T04:55:32.956Z,9.70
2023-03-30T04:58:19.279Z,9.80
2023-03-30T05:01:10.343Z,9.80
2023-03-30T05:04:01.238Z,9.90
2023-03-30T05:06:49.697Z,9.90
2023-03-30T05:09:36.648Z,9.90
2023-03-30T05:12:23.155Z,10.00
2023-03-30T05:15:10.454Z,10.00
2023-03-30T05:17:54.336Z,10.00
2023-03-30T05:20:41.422Z,10.10
2023-03-30T05:23:24.570Z,10.10
2023-03-30T05:25:53.338Z,10.10
2023-03-30T05:28:59.992Z,10.20
2023-03-30T05:31:46.465Z,10.20
2023-03-30T05:34:42.156Z,10.30
2023-03-30T05:37:33.125Z,10.40
2023-03-30T05:40:25.702Z,10.30
2023-03-30T05:43:12.412Z,10.20
2023-03-30T05:46:07.096Z,10.30
2023-03-30T05:49:02.144Z,10.50
2023-03-30T05:51:41.208Z,10.40
2023-03-30T05:54:28.529Z,10.30
2023-03-30T05:57:16.369Z,10.30
2023-03-30T05:59:54.775Z,10.30
2023-03-30T06:02:41.061Z,10.30
2023-03-30T06:05:16.297Z,10.40
2023-03-30T06:07:46.285Z,10.30
2023-03-30T06:10:14.459Z,10.30
2023-03-30T06:12:45.340Z,10.20
2023-03-30T06:15:27.743Z,10.20
2023-03-30T06:18:04.344Z,10.30
2023-03-30T06:20:35.287Z,10.40
2023-03-30T06:23:03.464Z,10.50
2023-03-30T06:25:32.332Z,10.60
2023-03-30T06:28:02.399Z,10.60
2023-03-30T06:30:30.894Z,10.70
2023-03-30T06:33:03.246Z,10.70
2023-03-30T06:35:39.144Z,10.80
2023-03-30T06:38:07.408Z,10.90
2023-03-30T06:40:37.072Z,11.00
2023-03-30T06:43:07.424Z,11.10
2023-03-30T06:45:52.120Z,11.30
2023-03-30T06:48:22.467Z,11.40
2023-03-30T06:50:56.368Z,11.40
2023-03-30T06:53:26.914Z,11.50
2023-03-30T06:55:56.849Z,11.40
2023-03-30T06:58:28.421Z,11.40
2023-03-30T07:00:56.969Z,11.50
2023-03-30T07:03:46.477Z,11.40
2023-03-30T07:06:24.306Z,11.50
2023-03-30T07:08:53.727Z,11.50
2023-03-30T07:11:26.170Z,11.50
2023-03-30T07:13:58.290Z,11.60
2023-03-30T07:16:26.637Z,11.70
2023-03-30T07:18:55.257Z,11.70
2023-03-30T07:21:23.739Z,11.70
2023-03-30T07:23:52.005Z,11.70
2023-03-30T07:26:30.649Z,11.80
2023-03-30T07:29:09.068Z,11.80
2023-03-30T07:31:39.806Z,11.90
2023-03-30T07:34:10.363Z,12.10
2023-03-30T07:36:42.982Z,12.30
2023-03-30T07:39:11.174Z,12.50
2023-03-30T07:41:41.381Z,12.70
2023-03-30T07:44:10.966Z,13.10
2023-03-30T07:46:39.302Z,13.30
2023-03-30T07:49:09.627Z,13.10
2023-03-30T07:51:37.758Z,13.10
2023-03-30T07:54:14.899Z,13.00
2023-03-30T07:56:58.534Z,12.90
2023-03-30T07:59:28.175Z,12.80
2023-03-30T08:02:01.951Z,12.80
2023-03-30T08:04:41.667Z,12.80
2023-03-30T08:07:10.789Z,12.70
2023-03-30T08:09:39.571Z,12.70
2023-03-30T08:12:08.096Z,12.80
2023-03-30T08:14:37.524Z,12.80
2023-03-30T08:17:07.100Z,12.80
2023-03-30T08:19:35.458Z,12.70
2023-03-30T08:22:08.224Z,12.70
2023-03-30T08:24:37.260Z,12.70
2023-03-30T08:30:08.766Z,13.00
2023-03-30T08:32:38.320Z,13.10
2023-03-30T08:35:08.938Z,13.10
2023-03-30T08:37:37.897Z,13.40
2023-03-30T08:40:10.456Z,13.90
2023-03-30T08:42:51.052Z,14.40
2023-03-30T08:45:22.852Z,14.80
2023-03-30T08:47:54.691Z,14.80
2023-03-30T08:50:33.370Z,14.70
2023-03-30T08:53:04.195Z,14.70
2023-03-30T08:55:40.703Z,14.70
2023-03-30T08:58:16.510Z,14.80
2023-03-30T09:00:52.087Z,15.00
2023-03-30T09:03:27.874Z,15.20
2023-03-30T09:06:01.680Z,15.10
2023-03-30T09:08:31.967Z,14.90
2023-03-30T09:11:02.421Z,14.80
2023-03-30T09:13:35.344Z,14.60
2023-03-30T09:16:14.659Z,14.30
2023-03-30T09:18:44.584Z,14.00
2023-03-30T09:21:14.533Z,13.80
2023-03-30T09:23:42.700Z,13.70
2023-03-30T09:26:19.604Z,13.60
2023-03-30T09:28:56.963Z,13.70
2023-03-30T09:31:32.269Z,13.90
2023-03-30T09:34:07.971Z,14.20
2023-03-30T09:36:44.756Z,14.20
2023-03-30T09:39:18.373Z,14.10
2023-03-30T09:41:59.832Z,14.10
2023-03-30T09:44:33.804Z,14.20
2023-03-30T09:47:04.571Z,14.30
2023-03-30T09:49:39.628Z,14.30
2023-03-30T09:52:09.081Z,14.40
2023-03-30T09:54:38.897Z,14.40
2023-03-30T09:57:07.608Z,14.70
2023-03-30T09:59:37.346Z,15.00
2023-03-30T10:02:20.059Z,15.50
2023-03-30T10:05:03.732Z,15.90
2023-03-30T10:07:37.806Z,16.20
2023-03-30T10:10:16.691Z,16.40
2023-03-30T10:12:45.861Z,16.60
2023-03-30T10:15:18.171Z,16.40
2023-03-30T10:17:51.439Z,16.10
2023-03-30T10:20:27.883Z,15.80
2023-03-30T10:22:57.797Z,15.40
2023-03-30T10:25:29.756Z,15.20
2023-03-30T10:28:03.156Z,15.20
2023-03-30T10:30:33.625Z,15.10
2023-03-30T10:33:04.597Z,15.30
2023-03-30T10:35:38.779Z,15.40
2023-03-30T10:38:11.097Z,15.60
2023-03-30T10:40:42.534Z,15.50
2023-03-30T10:43:16.833Z,15.60
2023-03-30T10:45:50.118Z,15.70
2023-03-30T10:48:38.789Z,16.30
2023-03-30T10:51:18.689Z,16.60
2023-03-30T10:53:59.654Z,16.70
2023-03-30T10:56:37.150Z,16.40
2023-03-30T10:59:31.232Z,16.10
2023-03-30T11:02:21.774Z,16.20
2023-03-30T11:04:55.639Z,16.30
2023-03-30T11:07:30.773Z,16.30
2023-03-30T11:10:03.853Z,16.30
2023-03-30T11:12:37.335Z,16.20
2023-03-30T11:15:10.838Z,16.20
2023-03-30T11:17:45.260Z,16.20
2023-03-30T11:20:27.238Z,16.00
2023-03-30T11:23:04.719Z,15.80
2023-03-30T11:25:43.136Z,15.80
2023-03-30T11:28:19.375Z,15.80
2023-03-30T11:30:49.333Z,15.60
2023-03-30T11:33:26.950Z,15.50
2023-03-30T11:36:01.002Z,15.30
2023-03-30T11:38:34.332Z,15.20
2023-03-30T11:41:08.176Z,15.10
2023-03-30T11:43:36.292Z,14.80
2023-03-30T11:46:09.820Z,14.60
2023-03-30T11:49:10.938Z,14.20
2023-03-30T11:51:55.994Z,13.90
2023-03-30T11:55:01.722Z,13.60
2023-03-30T11:57:38.149Z,13.40
2023-03-30T12:00:24.613Z,13.30
2023-03-30T12:02:59.021Z,13.40
2023-03-30T12:05:32.226Z,13.40
2023-03-30T12:08:11.501Z,13.60
2023-03-30T12:10:42.100Z,13.90
2023-03-30T12:13:14.140Z,14.00
2023-03-30T12:15:48.904Z,14.10
2023-03-30T12:18:29.398Z,14.30
2023-03-30T12:21:06.178Z,14.30
2023-03-30T12:23:42.631Z,14.40
2023-03-30T12:26:20.261Z,14.90
2023-03-30T12:29:40.518Z,15.00
2023-03-30T12:32:06.406Z,15.10
2023-03-30T12:34:37.134Z,15.10
2023-03-30T12:37:09.992Z,15.00
2023-03-30T12:39:49.153Z,14.80
2023-03-30T12:42:27.887Z,14.70
2023-03-30T12:45:14.108Z,14.70
2023-03-30T12:48:03.441Z,14.70
2023-03-30T12:50:43.455Z,14.60
2023-03-30T12:53:29.667Z,14.60
2023-03-30T12:56:07.462Z,14.60
2023-03-30T12:59:04.548Z,14.60
2023-03-30T13:01:46.974Z,14.70
2023-03-30T13:04:17.812Z,14.90
2023-03-30T13:06:52.659Z,14.90
2023-03-30T13:09:53.937Z,15.00
2023-03-30T13:12:32.412Z,15.10
2023-03-30T13:15:08.152Z,15.20
2023-03-30T13:17:51.731Z,15.20
2023-03-30T13:20:28.948Z,15.30
2023-03-30T13:23:24.999Z,15.20
2023-03-30T13:26:03.175Z,15.00
2023-03-30T13:28:58.418Z,14.90
2023-03-30T13:31:41.408Z,14.80
2023-03-30T13:34:18.493Z,14.80
2023-03-30T13:36:55.677Z,14.90
2023-03-30T13:39:30.063Z,14.90
2023-03-30T13:42:10.951Z,14.80
2023-03-30T13:44:56.797Z,14.70
2023-03-30T13:48:05.597Z,14.70
2023-03-30T13:50:35.314Z,14.80
2023-03-30T13:53:09.088Z,14.80
2023-03-30T13:55:40.432Z,14.80
2023-03-30T13:58:14.836Z,14.80
2023-03-30T14:00:49.899Z,14.80
2023-03-30T14:03:33.327Z,14.70
2023-03-30T14:06:03.807Z,14.70
2023-03-30T14:08:37.564Z,14.60
2023-03-30T14:11:12.145Z,14.60
2023-03-30T14:13:40.452Z,14.70
2023-03-30T14:16:11.510Z,14.90
2023-03-30T14:18:39.617Z,15.00
2023-03-30T14:21:15.650Z,15.10
2023-03-30T14:23:48.369Z,15.10
2023-03-30T14:26:18.847Z,15.10
2023-03-30T14:28:46.892Z,15.10
2023-03-30T14:31:18.671Z,15.00
2023-03-30T14:33:47.177Z,15.00
2023-03-30T14:36:17.502Z,14.90
2023-03-30T14:38:47.911Z,15.00
2023-03-30T14:41:19.059Z,15.00
2023-03-30T14:43:53.853Z,15.10
2023-03-30T14:46:26.639Z,15.20
2023-03-30T14:48:56.081Z,15.20
2023-03-30T14:51:27.398Z,15.20
2023-03-30T14:53:57.715Z,15.10
2023-03-30T14:56:28.025Z,15.20
2023-03-30T14:58:57.172Z,15.20
2023-03-30T15:01:31.557Z,15.00
2023-03-30T15:04:02.796Z,15.10
2023-03-30T15:06:31.804Z,15.10
2023-03-30T15:09:04.307Z,15.10
2023-03-30T15:11:34.466Z,15.10
2023-03-30T15:14:05.844Z,15.00
2023-03-30T15:16:36.350Z,14.90
2023-03-30T15:19:07.482Z,14.70
2023-03-30T15:21:38.132Z,14.70
2023-03-30T15:24:08.643Z,14.60
2023-03-30T15:26:42.733Z,14.60
2023-03-30T15:29:11.676Z,14.60
2023-03-30T15:31:41.025Z,14.50
2023-03-30T15:34:16.345Z,14.40
2023-03-30T15:36:45.493Z,14.40
2023-03-30T15:39:22.485Z,14.50
2023-03-30T15:42:00.801Z,14.60
2023-03-30T15:44:29.689Z,14.50
2023-03-30T15:47:01.802Z,14.50
2023-03-30T15:49:33.514Z,14.50
2023-03-30T15:52:02.951Z,14.50
2023-03-30T15:54:34.802Z,14.40
2023-03-30T15:57:05.419Z,14.20
2023-03-30T15:59:37.409Z,14.20
2023-03-30T16:02:16.929Z,14.10
2023-03-30T16:04:45.188Z,14.20
2023-03-30T16:07:19.102Z,14.20
2023-03-30T16:09:47.882Z,14.20
2023-03-30T16:12:18.108Z,14.10
2023-03-30T16:14:47.794Z,14.10
2023-03-30T16:17:17.244Z,14.00
2023-03-30T16:19:45.769Z,14.00
2023-03-30T16:22:15.281Z,14.00
2023-03-30T16:24:44.153Z,13.90
2023-03-30T16:27:13.188Z,13.90
2023-03-30T16:29:41.280Z,13.90
2023-03-30T16:32:09.506Z,13.90
2023-03-30T16:34:40.438Z,13.70
2023-03-30T16:37:11.232Z,13.70
2023-03-30T16:39:39.301Z,13.70
2023-03-30T16:42:07.384Z,13.60
2023-03-30T16:44:36.349Z,13.50
2023-03-30T16:47:04.821Z,13.40
2023-03-30T16:49:33.140Z,13.30
2023-03-30T16:52:02.940Z,13.20
2023-03-30T16:54:32.563Z,13.10
2023-03-30T16:57:01.577Z,13.10
2023-03-30T16:59:31.234Z,13.10
2023-03-30T17:02:00.076Z,13.10
2023-03-30T17:04:28.518Z,13.10
2023-03-30T17:06:56.657Z,13.10
2023-03-30T17:09:27.113Z,13.10
2023-03-30T17:11:55.185Z,13.00
2023-03-30T17:14:24.318Z,13.00
2023-03-30T17:16:52.410Z,12.90
2023-03-30T17:19:20.523Z,12.80
2023-03-30T17:21:48.621Z,12.80
2023-03-30T17:24:17.050Z,12.70
2023-03-30T17:26:46.476Z,12.70
2023-03-30T17:29:14.603Z,12.60
2023-03-30T17:31:45.551Z,12.50
2023-03-30T17:34:14.593Z,12.50
2023-03-30T17:36:42.867Z,12.50
2023-03-30T17:39:13.947Z,12.40
2023-03-30T17:41:42.238Z,12.40
2023-03-30T17:44:11.623Z,12.50
2023-03-30T17:46:40.742Z,12.40
2023-03-30T17:49:16.699Z,12.40
2023-03-30T17:51:44.727Z,12.40
2023-03-30T17:54:12.799Z,12.40
2023-03-30T17:56:40.813Z,12.40
2023-03-30T17:59:13.079Z,12.30
2023-03-30T18:01:41.207Z,12.30
2023-03-30T18:04:09.529Z,12.30
2023-03-30T18:06:37.670Z,12.20
2023-03-30T18:09:07.535Z,12.10
2023-03-30T18:11:35.665Z,12.10
2023-03-30T18:14:03.689Z,12.10
2023-03-30T18:16:33.154Z,12.10
2023-03-30T18:19:02.255Z,12.00
2023-03-30T18:21:30.362Z,12.00
2023-03-30T18:23:58.400Z,12.00
2023-03-30T18:26:26.997Z,11.90
2023-03-30T18:28:55.022Z,12.00
2023-03-30T18:31:23.262Z,11.90
2023-03-30T18:33:53.659Z,11.90
2023-03-30T18:36:22.615Z,11.90
2023-03-30T18:38:50.707Z,11.80
2023-03-30T18:41:18.721Z,11.90
2023-03-30T18:43:46.753Z,11.80
2023-03-30T18:46:14.890Z,11.80
2023-03-30T18:48:43.064Z,11.90
2023-03-30T18:51:13.277Z,11.90
2023-03-30T18:53:41.436Z,11.90
2023-03-30T18:56:13.591Z,11.90
2023-03-30T18:58:42.871Z,11.90
2023-03-30T19:01:12.822Z,11.90
2023-03-30T19:03:41.777Z,11.90
2023-03-30T19:06:13.689Z,11.90
2023-03-30T19:08:43.443Z,11.90
2023-03-30T19:11:14.252Z,11.80
2023-03-30T19:13:42.299Z,11.80
2023-03-30T19:16:11.236Z,11.80
2023-03-30T19:18:39.979Z,11.90
2023-03-30T19:21:08.239Z,11.90
2023-03-30T19:23:37.814Z,11.80
2023-03-30T19:26:05.909Z,11.80
2023-03-30T19:28:34.302Z,11.80
2023-03-30T19:31:06.432Z,11.90
2023-03-30T19:33:34.628Z,11.80
2023-03-30T19:36:02.847Z,11.80
2023-03-30T19:38:30.963Z,11.80
2023-03-30T19:41:03.152Z,11.80
2023-03-30T19:43:31.600Z,11.80
2023-03-30T19:45:59.651Z,11.80
2023-03-30T19:48:27.696Z,11.70
2023-03-30T19:50:55.859Z,11.60
2023-03-30T19:53:24.123Z,11.70
2023-03-30T19:55:52.144Z,11.70
2023-03-30T19:58:21.585Z,11.70
2023-03-30T20:00:50.706Z,11.60
2023-03-30T20:03:18.948Z,11.60
2023-03-30T20:05:51.147Z,11.60
2023-03-30T20:08:24.384Z,11.60
2023-03-30T20:10:53.115Z,11.50
2023-03-30T20:13:23.953Z,11.50
2023-03-30T20:15:56.200Z,11.50
2023-03-30T20:18:24.485Z,11.50
2023-03-30T20:20:52.751Z,11.50
2023-03-30T20:23:20.771Z,11.50
2023-03-30T20:25:50.348Z,11.50
2023-03-30T20:28:18.746Z,11.50
2023-03-30T20:30:48.180Z,11.50
2023-03-30T20:33:16.322Z,11.50
2023-03-30T20:35:44.609Z,11.50
2023-03-30T20:38:12.748Z,11.50
2023-03-30T20:40:40.776Z,11.50
2023-03-30T20:43:10.304Z,11.50
2023-03-30T20:45:47.948Z,11.40
2023-03-30T20:48:26.298Z,11.40
2023-03-30T20:50:55.780Z,11.40
2023-03-30T20:53:24.836Z,11.40
2023-03-30T20:55:52.953Z,11.40
2023-03-30T20:58:22.303Z,11.40
2023-03-30T21:00:51.964Z,11.30
2023-03-30T21:03:25.999Z,11.40
2023-03-30T21:06:00.533Z,11.30
2023-03-30T21:08:28.870Z,11.30
2023-03-30T21:10:57.042Z,11.30
2023-03-30T21:13:25.452Z,11.30
2023-03-30T21:15:57.666Z,11.30
2023-03-30T21:18:27.489Z,11.30
2023-03-30T21:20:56.362Z,11.30
2023-03-30T21:23:25.444Z,11.30
2023-03-30T21:25:56.763Z,11.30
2023-03-30T21:28:27.100Z,11.30
2023-03-30T21:30:55.462Z,11.30
2023-03-30T21:33:24.300Z,11.30
2023-03-30T21:35:55.318Z,11.30
2023-03-30T21:38:24.217Z,11.20
2023-03-30T21:41:00.079Z,11.30
2023-03-30T21:43:29.982Z,11.20
2023-03-30T21:46:00.193Z,11.20
2023-03-30T21:48:30.355Z,11.20
2023-03-30T21:51:01.235Z,11.20
2023-03-30T21:53:30.551Z,11.20
2023-03-30T21:55:59.176Z,11.30
2023-03-30T21:58:27.691Z,11.40
2023-03-30T22:01:09.079Z,11.40
2023-03-30T22:03:40.779Z,11.30
2023-03-30T22:06:12.999Z,11.20
2023-03-30T22:08:41.439Z,11.30
2023-03-30T22:11:12.363Z,11.30
2023-03-30T22:13:40.947Z,11.30
2023-03-30T22:16:13.131Z,11.30
2023-03-30T22:18:41.824Z,11.30
2023-03-30T22:21:14.977Z,11.30
2023-03-30T22:23:43.112Z,11.30
2023-03-30T22:26:11.956Z,11.30
2023-03-30T22:28:40.316Z,11.30
2023-03-30T22:31:08.676Z,11.30
2023-03-30T22:33:36.907Z,11.30
2023-03-30T22:36:07.234Z,11.30
2023-03-30T22:38:37.011Z,11.30
2023-03-30T22:41:07.590Z,11.30
2023-03-30T22:43:36.386Z,11.30
2023-03-30T22:46:05.508Z,11.20
2023-03-30T22:48:34.364Z,11.30
2023-03-30T22:51:03.236Z,11.30
2023-03-30T22:53:32.111Z,11.30
2023-03-30T22:56:01.831Z,11.30
2023-03-30T22:58:29.909Z,11.30
2023-03-30T23:01:01.901Z,11.20
2023-03-30T23:03:30.329Z,11.20
2023-03-30T23:06:01.138Z,11.20
2023-03-30T23:08:29.882Z,11.20
2023-03-30T23:11:04.073Z,11.20
2023-03-30T23:13:37.352Z,11.20
2023-03-30T23:16:08.355Z,11.20
2023-03-30T23:18:37.238Z,11.20
2023-03-30T23:21:06.722Z,11.20
2023-03-30T23:23:35.994Z,11.20
2023-03-30T23:26:08.425Z,11.20
2023-03-30T23:28:40.198Z,11.20
2023-03-30T23:31:09.342Z,11.10
2023-03-30T23:33:37.473Z,11.20
2023-03-30T23:36:07.323Z,11.20
2023-03-30T23:38:36.000Z,11.10
2023-03-30T23:41:04.157Z,11.20
2023-03-30T23:43:32.190Z,11.10
2023-03-30T23:46:01.948Z,11.20
2023-03-30T23:48:30.007Z,11.20
2023-03-30T23:50:58.412Z,11.20
2023-03-30T23:53:26.972Z,11.10
2023-03-30T23:55:55.195Z,11.10
2023-03-30T23:58:23.603Z,11.00
